Hauptseite
METAR-TAF:

METAR-TAF

Flughäfen :

Harbin, China

Breite: 45-45N, Länge: 126-46E, Höhe: 143 m

Beobachtung

Neuester Wetterbericht von vor 39 Minuten, um 16:00 UTC
Wind 6 kt aus Nord/Nordwest
Temperatur 19°C
Luftfeuchtigkeit 88%
Luftdruck 1009 hPa
Sichtweite 10 km oder mehr
Leicht bewölkt in der Höhe von 2300 ft

METAR: ZYHB 271600Z 33003MPS 9999 FEW023 19/17 Q1009 NOSIG

Zeit: 00:39 (16:39 UTC)

Prognose

Neuester Wetterbericht von vor 3 Stunden und 48 Minuten, um 12:51 UTC
Gültige Prognose vom 27 um 12 UTC bis 28 um 12 UTC
Wind 8 kt aus Nord
Sichtweite: 6000 m
Aufgelockert bewölkt in der Höhe von 3000 ft
Zeitweise
vom 27 um 12 UTC bis 27 um 16 UTC
Leicht bewölkt in der Höhe von 2300 ft, Kumulonimbus.
Durchbrochene Bewölkung in der Höhe von 2600 ft
Gewitter, Leichtregen

TAF: ZYHB 271251Z 2712/2812 35004MPS 6000 SCT030 TX26/2806Z TN17/2720Z TEMPO 2712/2716 -TSRA FEW023CB BKN026

Wetterbeobachtungen und Prognosen von mehr als 4000 Flughäfen (METAR und TAF Bericht).

Die verfügbaren Stationen werden durch gelbe und rote Markierungen auf der Karte dargestellt.

Führen Sie die Maus auf sie, um den Namen der Station zu sehen.

Darauf klicken, um die Beobachtung von Wetterbeobachtungen und Prognosen zu sehen.

Um die Karte zu ändern : klicken Sie auf den grünen Tasten mit einem schwarzen Kreuz Zum Vergrößern, auf den grünen Button mit einem Gedankenstrich zu verkleinern, oder auf die grünen Pfeile für benachbarte Karten.


METAR-TAF: